sensor_id;sensor_type;location;lat;lon;timestamp;P1;durP1;ratioP1;P2;durP2;ratioP2
65275;SDS011;51875;49.994;14.052;2023-06-26T00:00:26;7.88;;;6.00;;
65275;SDS011;51875;49.994;14.052;2023-06-26T00:02:01;8.88;;;6.10;;
65275;SDS011;51875;49.994;14.052;2023-06-26T00:03:17;8.18;;;6.13;;
65275;SDS011;51875;49.994;14.052;2023-06-26T00:04:32;9.27;;;6.75;;
65275;SDS011;51875;49.994;14.052;2023-06-26T00:05:48;7.07;;;5.82;;
65275;SDS011;51875;49.994;14.052;2023-06-26T00:07:05;8.90;;;5.53;;
65275;SDS011;51875;49.994;14.052;2023-06-26T00:08:21;8.77;;;6.28;;
65275;SDS011;51875;49.994;14.052;2023-06-26T00:09:36;7.88;;;6.15;;
65275;SDS011;51875;49.994;14.052;2023-06-26T00:10:52;7.03;;;5.80;;
65275;SDS011;51875;49.994;14.052;2023-06-26T00:12:08;9.50;;;6.07;;
65275;SDS011;51875;49.994;14.052;2023-06-26T00:13:24;8.13;;;6.18;;
65275;SDS011;51875;49.994;14.052;2023-06-26T00:14:39;9.57;;;6.05;;
65275;SDS011;51875;49.994;14.052;2023-06-26T00:15:55;9.40;;;6.28;;
65275;SDS011;51875;49.994;14.052;2023-06-26T00:17:11;8.13;;;6.57;;
65275;SDS011;51875;49.994;14.052;2023-06-26T00:18:27;9.13;;;6.22;;
65275;SDS011;51875;49.994;14.052;2023-06-26T00:19:42;8.77;;;6.13;;
65275;SDS011;51875;49.994;14.052;2023-06-26T00:20:58;8.02;;;6.15;;
65275;SDS011;51875;49.994;14.052;2023-06-26T00:22:13;8.82;;;6.85;;
65275;SDS011;51875;49.994;14.052;2023-06-26T00:23:29;8.10;;;6.05;;
65275;SDS011;51875;49.994;14.052;2023-06-26T00:24:47;8.88;;;6.10;;
65275;SDS011;51875;49.994;14.052;2023-06-26T00:26:04;7.90;;;6.30;;
65275;SDS011;51875;49.994;14.052;2023-06-26T00:27:20;7.03;;;5.95;;
65275;SDS011;51875;49.994;14.052;2023-06-26T00:28:35;8.02;;;6.13;;
65275;SDS011;51875;49.994;14.052;2023-06-26T00:29:51;6.97;;;5.72;;
65275;SDS011;51875;49.994;14.052;2023-06-26T00:31:07;8.23;;;6.00;;
65275;SDS011;51875;49.994;14.052;2023-06-26T00:32:23;7.30;;;5.65;;
65275;SDS011;51875;49.994;14.052;2023-06-26T00:33:39;8.80;;;5.95;;
65275;SDS011;51875;49.994;14.052;2023-06-26T00:34:54;6.60;;;5.90;;
65275;SDS011;51875;49.994;14.052;2023-06-26T00:36:10;6.65;;;5.65;;
65275;SDS011;51875;49.994;14.052;2023-06-26T00:37:25;7.25;;;6.13;;
65275;SDS011;51875;49.994;14.052;2023-06-26T00:38:41;8.95;;;5.90;;
65275;SDS011;51875;49.994;14.052;2023-06-26T00:39:56;7.88;;;6.00;;
65275;SDS011;51875;49.994;14.052;2023-06-26T00:41:12;8.20;;;6.10;;
65275;SDS011;51875;49.994;14.052;2023-06-26T00:42:28;7.05;;;5.68;;
65275;SDS011;51875;49.994;14.052;2023-06-26T00:43:43;7.78;;;6.10;;
65275;SDS011;51875;49.994;14.052;2023-06-26T00:44:59;8.02;;;5.78;;
65275;SDS011;51875;49.994;14.052;2023-06-26T00:46:15;7.45;;;5.70;;
65275;SDS011;51875;49.994;14.052;2023-06-26T00:47:30;6.85;;;5.57;;
65275;SDS011;51875;49.994;14.052;2023-06-26T00:48:46;6.25;;;5.55;;
65275;SDS011;51875;49.994;14.052;2023-06-26T00:50:04;6.90;;;5.75;;
65275;SDS011;51875;49.994;14.052;2023-06-26T00:51:19;7.95;;;6.07;;
65275;SDS011;51875;49.994;14.052;2023-06-26T00:52:35;8.30;;;6.40;;
65275;SDS011;51875;49.994;14.052;2023-06-26T00:53:52;7.57;;;5.78;;
65275;SDS011;51875;49.994;14.052;2023-06-26T00:55:08;7.60;;;5.90;;
65275;SDS011;51875;49.994;14.052;2023-06-26T00:56:24;8.35;;;6.43;;
65275;SDS011;51875;49.994;14.052;2023-06-26T00:57:40;7.55;;;6.00;;
65275;SDS011;51875;49.994;14.052;2023-06-26T00:58:55;8.07;;;6.18;;
65275;SDS011;51875;49.994;14.052;2023-06-26T01:00:11;11.13;;;6.82;;
65275;SDS011;51875;49.994;14.052;2023-06-26T01:01:28;9.20;;;6.82;;
65275;SDS011;51875;49.994;14.052;2023-06-26T01:02:43;9.38;;;6.45;;
65275;SDS011;51875;49.994;14.052;2023-06-26T01:03:59;8.70;;;6.78;;
65275;SDS011;51875;49.994;14.052;2023-06-26T01:05:15;6.97;;;5.78;;
65275;SDS011;51875;49.994;14.052;2023-06-26T01:06:35;10.10;;;6.32;;
65275;SDS011;51875;49.994;14.052;2023-06-26T01:07:51;7.07;;;6.13;;
65275;SDS011;51875;49.994;14.052;2023-06-26T01:09:07;8.63;;;6.55;;
65275;SDS011;51875;49.994;14.052;2023-06-26T01:10:23;7.80;;;6.57;;
65275;SDS011;51875;49.994;14.052;2023-06-26T01:11:39;8.32;;;6.57;;
65275;SDS011;51875;49.994;14.052;2023-06-26T01:12:54;11.25;;;6.78;;
65275;SDS011;51875;49.994;14.052;2023-06-26T01:14:11;8.45;;;6.60;;
65275;SDS011;51875;49.994;14.052;2023-06-26T01:15:26;10.23;;;6.32;;
65275;SDS011;51875;49.994;14.052;2023-06-26T01:16:42;8.90;;;6.13;;
65275;SDS011;51875;49.994;14.052;2023-06-26T01:18:02;10.40;;;6.78;;
65275;SDS011;51875;49.994;14.052;2023-06-26T01:19:23;8.68;;;6.07;;
65275;SDS011;51875;49.994;14.052;2023-06-26T01:20:43;9.25;;;6.07;;
65275;SDS011;51875;49.994;14.052;2023-06-26T01:23:53;8.45;;;6.60;;
65275;SDS011;51875;49.994;14.052;2023-06-26T01:26:36;8.15;;;6.22;;
65275;SDS011;51875;49.994;14.052;2023-06-26T01:27:53;9.00;;;6.45;;
65275;SDS011;51875;49.994;14.052;2023-06-26T01:29:10;7.13;;;5.75;;
65275;SDS011;51875;49.994;14.052;2023-06-26T01:30:28;9.07;;;6.28;;
65275;SDS011;51875;49.994;14.052;2023-06-26T01:31:44;7.85;;;6.00;;
65275;SDS011;51875;49.994;14.052;2023-06-26T01:33:04;7.15;;;6.18;;
65275;SDS011;51875;49.994;14.052;2023-06-26T01:34:19;8.18;;;6.07;;
65275;SDS011;51875;49.994;14.052;2023-06-26T01:35:35;7.93;;;6.25;;
65275;SDS011;51875;49.994;14.052;2023-06-26T01:36:51;8.23;;;6.10;;
65275;SDS011;51875;49.994;14.052;2023-06-26T01:38:16;8.32;;;6.25;;
65275;SDS011;51875;49.994;14.052;2023-06-26T01:39:33;9.38;;;6.20;;
65275;SDS011;51875;49.994;14.052;2023-06-26T01:40:49;10.13;;;6.38;;
65275;SDS011;51875;49.994;14.052;2023-06-26T01:42:05;8.50;;;6.43;;
65275;SDS011;51875;49.994;14.052;2023-06-26T01:43:27;7.32;;;6.15;;
65275;SDS011;51875;49.994;14.052;2023-06-26T01:44:49;9.52;;;6.38;;
65275;SDS011;51875;49.994;14.052;2023-06-26T01:46:57;8.10;;;6.20;;
65275;SDS011;51875;49.994;14.052;2023-06-26T01:48:02;8.15;;;6.30;;
65275;SDS011;51875;49.994;14.052;2023-06-26T01:49:28;9.27;;;6.85;;
65275;SDS011;51875;49.994;14.052;2023-06-26T01:51:04;9.15;;;6.30;;
65275;SDS011;51875;49.994;14.052;2023-06-26T01:52:25;8.88;;;6.45;;
65275;SDS011;51875;49.994;14.052;2023-06-26T01:53:49;10.20;;;7.13;;
65275;SDS011;51875;49.994;14.052;2023-06-26T01:56:34;9.57;;;6.60;;
65275;SDS011;51875;49.994;14.052;2023-06-26T01:57:54;8.73;;;6.70;;
65275;SDS011;51875;49.994;14.052;2023-06-26T01:59:12;8.25;;;6.57;;
65275;SDS011;51875;49.994;14.052;2023-06-26T02:00:31;13.13;;;6.78;;
65275;SDS011;51875;49.994;14.052;2023-06-26T02:01:48;9.60;;;7.38;;
65275;SDS011;51875;49.994;14.052;2023-06-26T02:03:04;9.45;;;6.72;;
65275;SDS011;51875;49.994;14.052;2023-06-26T02:04:21;9.68;;;6.80;;
65275;SDS011;51875;49.994;14.052;2023-06-26T02:05:36;7.70;;;6.15;;
65275;SDS011;51875;49.994;14.052;2023-06-26T02:06:52;8.25;;;6.70;;
65275;SDS011;51875;49.994;14.052;2023-06-26T02:08:08;9.07;;;6.80;;
65275;SDS011;51875;49.994;14.052;2023-06-26T02:09:24;9.35;;;6.93;;
65275;SDS011;51875;49.994;14.052;2023-06-26T02:10:39;9.00;;;6.95;;
65275;SDS011;51875;49.994;14.052;2023-06-26T02:11:55;9.27;;;7.35;;
65275;SDS011;51875;49.994;14.052;2023-06-26T02:13:10;9.77;;;7.22;;
65275;SDS011;51875;49.994;14.052;2023-06-26T02:14:26;8.85;;;6.88;;
65275;SDS011;51875;49.994;14.052;2023-06-26T02:15:41;9.07;;;6.75;;
65275;SDS011;51875;49.994;14.052;2023-06-26T02:16:57;9.48;;;6.90;;
65275;SDS011;51875;49.994;14.052;2023-06-26T02:18:15;8.85;;;6.70;;
65275;SDS011;51875;49.994;14.052;2023-06-26T02:19:30;8.43;;;6.88;;
65275;SDS011;51875;49.994;14.052;2023-06-26T02:20:46;8.30;;;6.25;;
65275;SDS011;51875;49.994;14.052;2023-06-26T02:22:01;8.48;;;6.68;;
65275;SDS011;51875;49.994;14.052;2023-06-26T02:23:17;8.90;;;6.93;;
65275;SDS011;51875;49.994;14.052;2023-06-26T02:24:32;7.78;;;5.97;;
65275;SDS011;51875;49.994;14.052;2023-06-26T02:25:49;9.85;;;7.05;;
65275;SDS011;51875;49.994;14.052;2023-06-26T02:27:04;8.48;;;6.85;;
65275;SDS011;51875;49.994;14.052;2023-06-26T02:28:20;9.05;;;6.65;;
65275;SDS011;51875;49.994;14.052;2023-06-26T02:29:35;7.10;;;5.78;;
65275;SDS011;51875;49.994;14.052;2023-06-26T02:30:51;9.85;;;5.93;;
65275;SDS011;51875;49.994;14.052;2023-06-26T02:32:07;7.82;;;5.80;;
65275;SDS011;51875;49.994;14.052;2023-06-26T02:33:23;8.45;;;5.80;;
65275;SDS011;51875;49.994;14.052;2023-06-26T02:34:39;10.00;;;6.70;;
65275;SDS011;51875;49.994;14.052;2023-06-26T02:35:54;7.72;;;6.32;;
65275;SDS011;51875;49.994;14.052;2023-06-26T02:37:10;9.00;;;7.10;;
65275;SDS011;51875;49.994;14.052;2023-06-26T02:38:26;8.60;;;6.22;;
65275;SDS011;51875;49.994;14.052;2023-06-26T02:39:41;9.35;;;6.47;;
65275;SDS011;51875;49.994;14.052;2023-06-26T02:40:57;8.57;;;6.70;;
65275;SDS011;51875;49.994;14.052;2023-06-26T02:42:12;8.57;;;6.38;;
65275;SDS011;51875;49.994;14.052;2023-06-26T02:43:28;9.18;;;6.80;;
65275;SDS011;51875;49.994;14.052;2023-06-26T02:44:43;7.47;;;6.00;;
65275;SDS011;51875;49.994;14.052;2023-06-26T02:45:59;7.88;;;6.65;;
65275;SDS011;51875;49.994;14.052;2023-06-26T02:47:14;9.38;;;6.75;;
65275;SDS011;51875;49.994;14.052;2023-06-26T02:48:30;7.95;;;6.53;;
65275;SDS011;51875;49.994;14.052;2023-06-26T02:49:46;7.47;;;6.28;;
65275;SDS011;51875;49.994;14.052;2023-06-26T02:51:01;7.85;;;6.55;;
65275;SDS011;51875;49.994;14.052;2023-06-26T02:52:17;8.20;;;6.50;;
65275;SDS011;51875;49.994;14.052;2023-06-26T02:53:34;7.47;;;5.93;;
65275;SDS011;51875;49.994;14.052;2023-06-26T02:54:49;7.57;;;5.70;;
65275;SDS011;51875;49.994;14.052;2023-06-26T02:56:05;8.18;;;6.18;;
65275;SDS011;51875;49.994;14.052;2023-06-26T02:57:20;7.65;;;6.43;;
65275;SDS011;51875;49.994;14.052;2023-06-26T02:58:36;8.25;;;6.68;;
65275;SDS011;51875;49.994;14.052;2023-06-26T02:59:52;10.07;;;7.10;;
65275;SDS011;51875;49.994;14.052;2023-06-26T03:01:07;11.65;;;7.28;;
65275;SDS011;51875;49.994;14.052;2023-06-26T03:02:23;9.10;;;6.88;;
65275;SDS011;51875;49.994;14.052;2023-06-26T03:03:40;12.05;;;7.07;;
65275;SDS011;51875;49.994;14.052;2023-06-26T03:04:56;8.70;;;7.30;;
65275;SDS011;51875;49.994;14.052;2023-06-26T03:06:12;12.75;;;7.60;;
65275;SDS011;51875;49.994;14.052;2023-06-26T03:07:28;9.50;;;6.93;;
65275;SDS011;51875;49.994;14.052;2023-06-26T03:08:44;9.88;;;6.93;;
65275;SDS011;51875;49.994;14.052;2023-06-26T03:10:00;7.10;;;6.40;;
65275;SDS011;51875;49.994;14.052;2023-06-26T03:11:15;9.80;;;7.43;;
65275;SDS011;51875;49.994;14.052;2023-06-26T03:12:31;9.55;;;7.50;;
65275;SDS011;51875;49.994;14.052;2023-06-26T03:13:46;9.43;;;7.35;;
65275;SDS011;51875;49.994;14.052;2023-06-26T03:15:02;10.10;;;7.60;;
65275;SDS011;51875;49.994;14.052;2023-06-26T03:16:18;9.48;;;6.57;;
65275;SDS011;51875;49.994;14.052;2023-06-26T03:17:34;8.45;;;6.53;;
65275;SDS011;51875;49.994;14.052;2023-06-26T03:18:49;9.23;;;7.13;;
65275;SDS011;51875;49.994;14.052;2023-06-26T03:20:05;10.40;;;7.72;;
65275;SDS011;51875;49.994;14.052;2023-06-26T03:21:22;9.43;;;7.00;;
65275;SDS011;51875;49.994;14.052;2023-06-26T03:22:38;9.82;;;7.90;;
65275;SDS011;51875;49.994;14.052;2023-06-26T03:23:53;12.15;;;7.22;;
65275;SDS011;51875;49.994;14.052;2023-06-26T03:25:09;11.07;;;7.68;;
65275;SDS011;51875;49.994;14.052;2023-06-26T03:26:24;10.02;;;7.07;;
65275;SDS011;51875;49.994;14.052;2023-06-26T03:27:42;10.82;;;7.07;;
65275;SDS011;51875;49.994;14.052;2023-06-26T03:28:58;8.88;;;7.53;;
65275;SDS011;51875;49.994;14.052;2023-06-26T03:30:15;10.48;;;7.30;;
65275;SDS011;51875;49.994;14.052;2023-06-26T03:31:30;8.90;;;6.32;;
65275;SDS011;51875;49.994;14.052;2023-06-26T03:32:46;9.18;;;7.57;;
65275;SDS011;51875;49.994;14.052;2023-06-26T03:34:01;8.23;;;6.57;;
65275;SDS011;51875;49.994;14.052;2023-06-26T03:35:17;9.60;;;7.05;;
65275;SDS011;51875;49.994;14.052;2023-06-26T03:36:33;8.98;;;7.00;;
65275;SDS011;51875;49.994;14.052;2023-06-26T03:37:49;8.82;;;7.13;;
65275;SDS011;51875;49.994;14.052;2023-06-26T03:39:04;9.07;;;7.15;;
65275;SDS011;51875;49.994;14.052;2023-06-26T03:40:20;8.70;;;7.03;;
65275;SDS011;51875;49.994;14.052;2023-06-26T03:41:35;9.00;;;7.18;;
65275;SDS011;51875;49.994;14.052;2023-06-26T03:42:51;8.32;;;6.82;;
65275;SDS011;51875;49.994;14.052;2023-06-26T03:44:07;8.90;;;6.93;;
65275;SDS011;51875;49.994;14.052;2023-06-26T03:45:22;9.57;;;7.45;;
65275;SDS011;51875;49.994;14.052;2023-06-26T03:46:38;8.32;;;7.05;;
65275;SDS011;51875;49.994;14.052;2023-06-26T03:47:53;10.15;;;7.60;;
65275;SDS011;51875;49.994;14.052;2023-06-26T03:49:09;10.55;;;7.88;;
65275;SDS011;51875;49.994;14.052;2023-06-26T03:50:25;8.75;;;7.20;;
65275;SDS011;51875;49.994;14.052;2023-06-26T03:51:41;9.77;;;7.30;;
65275;SDS011;51875;49.994;14.052;2023-06-26T03:52:57;12.32;;;7.60;;
65275;SDS011;51875;49.994;14.052;2023-06-26T03:54:14;8.65;;;6.90;;
65275;SDS011;51875;49.994;14.052;2023-06-26T03:55:29;9.13;;;7.47;;
65275;SDS011;51875;49.994;14.052;2023-06-26T03:56:45;9.65;;;7.07;;
65275;SDS011;51875;49.994;14.052;2023-06-26T03:58:00;9.32;;;6.93;;
65275;SDS011;51875;49.994;14.052;2023-06-26T03:59:16;7.97;;;6.68;;
65275;SDS011;51875;49.994;14.052;2023-06-26T04:00:32;9.18;;;7.28;;
65275;SDS011;51875;49.994;14.052;2023-06-26T04:01:47;9.90;;;7.65;;
65275;SDS011;51875;49.994;14.052;2023-06-26T04:03:03;9.68;;;7.85;;
65275;SDS011;51875;49.994;14.052;2023-06-26T04:04:19;12.45;;;7.90;;
65275;SDS011;51875;49.994;14.052;2023-06-26T04:05:35;9.25;;;6.72;;
65275;SDS011;51875;49.994;14.052;2023-06-26T04:06:51;7.35;;;6.38;;
65275;SDS011;51875;49.994;14.052;2023-06-26T04:08:06;9.07;;;7.10;;
65275;SDS011;51875;49.994;14.052;2023-06-26T04:09:23;9.65;;;6.70;;
65275;SDS011;51875;49.994;14.052;2023-06-26T04:10:39;8.73;;;6.97;;
65275;SDS011;51875;49.994;14.052;2023-06-26T04:11:54;9.18;;;6.82;;
65275;SDS011;51875;49.994;14.052;2023-06-26T04:13:10;11.75;;;7.07;;
65275;SDS011;51875;49.994;14.052;2023-06-26T04:14:25;10.05;;;6.95;;
65275;SDS011;51875;49.994;14.052;2023-06-26T04:15:41;7.88;;;6.78;;
65275;SDS011;51875;49.994;14.052;2023-06-26T04:16:57;8.20;;;6.78;;
65275;SDS011;51875;49.994;14.052;2023-06-26T04:18:13;8.23;;;7.10;;
65275;SDS011;51875;49.994;14.052;2023-06-26T04:19:29;8.80;;;7.13;;
65275;SDS011;51875;49.994;14.052;2023-06-26T04:21:03;9.18;;;6.32;;
65275;SDS011;51875;49.994;14.052;2023-06-26T04:22:23;10.45;;;6.65;;
65275;SDS011;51875;49.994;14.052;2023-06-26T04:23:39;7.53;;;6.60;;
65275;SDS011;51875;49.994;14.052;2023-06-26T04:24:55;9.48;;;6.95;;
65275;SDS011;51875;49.994;14.052;2023-06-26T04:26:11;11.18;;;7.20;;
65275;SDS011;51875;49.994;14.052;2023-06-26T04:27:29;11.98;;;7.07;;
65275;SDS011;51875;49.994;14.052;2023-06-26T04:28:45;9.52;;;7.22;;
65275;SDS011;51875;49.994;14.052;2023-06-26T04:30:01;10.13;;;6.85;;
65275;SDS011;51875;49.994;14.052;2023-06-26T04:31:16;9.95;;;6.97;;
65275;SDS011;51875;49.994;14.052;2023-06-26T04:32:32;9.60;;;7.35;;
65275;SDS011;51875;49.994;14.052;2023-06-26T04:33:47;9.95;;;7.20;;
65275;SDS011;51875;49.994;14.052;2023-06-26T04:35:06;11.85;;;7.63;;
65275;SDS011;51875;49.994;14.052;2023-06-26T04:36:22;9.38;;;7.47;;
65275;SDS011;51875;49.994;14.052;2023-06-26T04:37:43;9.85;;;7.80;;
65275;SDS011;51875;49.994;14.052;2023-06-26T04:38:59;10.50;;;7.47;;
65275;SDS011;51875;49.994;14.052;2023-06-26T04:40:14;10.60;;;7.38;;
65275;SDS011;51875;49.994;14.052;2023-06-26T04:41:30;9.30;;;7.47;;
65275;SDS011;51875;49.994;14.052;2023-06-26T04:42:45;9.23;;;7.60;;
65275;SDS011;51875;49.994;14.052;2023-06-26T04:44:01;9.98;;;7.47;;
65275;SDS011;51875;49.994;14.052;2023-06-26T04:45:16;9.48;;;7.97;;
65275;SDS011;51875;49.994;14.052;2023-06-26T04:46:32;11.02;;;7.72;;
65275;SDS011;51875;49.994;14.052;2023-06-26T04:47:48;11.95;;;7.82;;
65275;SDS011;51875;49.994;14.052;2023-06-26T04:49:03;12.23;;;7.18;;
65275;SDS011;51875;49.994;14.052;2023-06-26T04:50:19;11.50;;;7.55;;
65275;SDS011;51875;49.994;14.052;2023-06-26T04:51:35;9.45;;;8.23;;
65275;SDS011;51875;49.994;14.052;2023-06-26T04:52:55;9.75;;;7.78;;
65275;SDS011;51875;49.994;14.052;2023-06-26T04:54:11;9.05;;;7.28;;
65275;SDS011;51875;49.994;14.052;2023-06-26T04:55:27;11.02;;;7.47;;
65275;SDS011;51875;49.994;14.052;2023-06-26T04:56:43;12.35;;;6.97;;
65275;SDS011;51875;49.994;14.052;2023-06-26T04:57:58;11.93;;;7.45;;
65275;SDS011;51875;49.994;14.052;2023-06-26T04:59:15;8.90;;;7.13;;
65275;SDS011;51875;49.994;14.052;2023-06-26T05:00:30;10.27;;;7.13;;
65275;SDS011;51875;49.994;14.052;2023-06-26T05:01:46;10.18;;;7.68;;
65275;SDS011;51875;49.994;14.052;2023-06-26T05:03:03;10.50;;;7.13;;
65275;SDS011;51875;49.994;14.052;2023-06-26T05:04:19;11.30;;;7.78;;
65275;SDS011;51875;49.994;14.052;2023-06-26T05:05:35;9.48;;;6.90;;
65275;SDS011;51875;49.994;14.052;2023-06-26T05:06:50;11.32;;;7.28;;
65275;SDS011;51875;49.994;14.052;2023-06-26T05:08:16;13.40;;;7.57;;
65275;SDS011;51875;49.994;14.052;2023-06-26T05:09:32;14.23;;;8.40;;
65275;SDS011;51875;49.994;14.052;2023-06-26T05:10:47;10.95;;;6.97;;
65275;SDS011;51875;49.994;14.052;2023-06-26T05:12:04;10.15;;;7.22;;
65275;SDS011;51875;49.994;14.052;2023-06-26T05:13:19;9.70;;;7.57;;
65275;SDS011;51875;49.994;14.052;2023-06-26T05:14:35;8.43;;;6.90;;
65275;SDS011;51875;49.994;14.052;2023-06-26T05:15:51;9.48;;;7.32;;
65275;SDS011;51875;49.994;14.052;2023-06-26T05:17:07;10.35;;;7.18;;
65275;SDS011;51875;49.994;14.052;2023-06-26T05:18:23;9.18;;;7.45;;
65275;SDS011;51875;49.994;14.052;2023-06-26T05:19:38;9.48;;;7.25;;
65275;SDS011;51875;49.994;14.052;2023-06-26T05:20:54;11.05;;;7.80;;
65275;SDS011;51875;49.994;14.052;2023-06-26T05:22:09;9.40;;;7.10;;
65275;SDS011;51875;49.994;14.052;2023-06-26T05:23:27;9.90;;;7.75;;
65275;SDS011;51875;49.994;14.052;2023-06-26T05:24:46;9.70;;;7.15;;
65275;SDS011;51875;49.994;14.052;2023-06-26T05:26:02;9.93;;;7.78;;
65275;SDS011;51875;49.994;14.052;2023-06-26T05:27:18;10.10;;;7.25;;
65275;SDS011;51875;49.994;14.052;2023-06-26T05:28:37;11.25;;;7.47;;
65275;SDS011;51875;49.994;14.052;2023-06-26T05:29:52;11.25;;;7.28;;
65275;SDS011;51875;49.994;14.052;2023-06-26T05:31:08;9.57;;;7.80;;
65275;SDS011;51875;49.994;14.052;2023-06-26T05:32:24;10.82;;;7.35;;
65275;SDS011;51875;49.994;14.052;2023-06-26T05:33:40;9.85;;;7.10;;
65275;SDS011;51875;49.994;14.052;2023-06-26T05:34:58;9.40;;;7.50;;
65275;SDS011;51875;49.994;14.052;2023-06-26T05:36:16;9.43;;;7.13;;
65275;SDS011;51875;49.994;14.052;2023-06-26T05:37:34;11.27;;;7.75;;
65275;SDS011;51875;49.994;14.052;2023-06-26T05:38:49;8.70;;;7.40;;
65275;SDS011;51875;49.994;14.052;2023-06-26T05:40:06;8.73;;;7.50;;
65275;SDS011;51875;49.994;14.052;2023-06-26T05:41:22;12.93;;;7.40;;
65275;SDS011;51875;49.994;14.052;2023-06-26T05:42:38;11.23;;;7.28;;
65275;SDS011;51875;49.994;14.052;2023-06-26T05:43:54;9.63;;;8.20;;
65275;SDS011;51875;49.994;14.052;2023-06-26T05:45:10;8.88;;;7.22;;
65275;SDS011;51875;49.994;14.052;2023-06-26T05:46:25;9.13;;;7.15;;
65275;SDS011;51875;49.994;14.052;2023-06-26T05:47:41;9.73;;;7.05;;
65275;SDS011;51875;49.994;14.052;2023-06-26T05:48:57;10.75;;;7.80;;
65275;SDS011;51875;49.994;14.052;2023-06-26T05:50:13;10.52;;;7.70;;
65275;SDS011;51875;49.994;14.052;2023-06-26T05:51:29;8.88;;;7.82;;
65275;SDS011;51875;49.994;14.052;2023-06-26T05:52:45;8.82;;;7.13;;
65275;SDS011;51875;49.994;14.052;2023-06-26T05:54:01;11.07;;;8.25;;
65275;SDS011;51875;49.994;14.052;2023-06-26T05:55:17;10.95;;;7.72;;
65275;SDS011;51875;49.994;14.052;2023-06-26T05:56:33;9.82;;;7.70;;
65275;SDS011;51875;49.994;14.052;2023-06-26T05:57:48;9.18;;;7.72;;
65275;SDS011;51875;49.994;14.052;2023-06-26T05:59:06;13.05;;;7.88;;
65275;SDS011;51875;49.994;14.052;2023-06-26T06:00:22;11.73;;;7.75;;
65275;SDS011;51875;49.994;14.052;2023-06-26T06:01:38;8.70;;;7.40;;
65275;SDS011;51875;49.994;14.052;2023-06-26T06:02:54;10.95;;;7.82;;
65275;SDS011;51875;49.994;14.052;2023-06-26T06:04:10;9.48;;;7.55;;
65275;SDS011;51875;49.994;14.052;2023-06-26T06:05:26;9.70;;;7.57;;
65275;SDS011;51875;49.994;14.052;2023-06-26T06:06:41;10.73;;;7.82;;
65275;SDS011;51875;49.994;14.052;2023-06-26T06:07:57;10.98;;;7.43;;
65275;SDS011;51875;49.994;14.052;2023-06-26T06:09:12;11.18;;;7.53;;
65275;SDS011;51875;49.994;14.052;2023-06-26T06:10:28;10.15;;;7.53;;
65275;SDS011;51875;49.994;14.052;2023-06-26T06:11:44;10.90;;;8.63;;
65275;SDS011;51875;49.994;14.052;2023-06-26T06:12:59;7.93;;;7.05;;
65275;SDS011;51875;49.994;14.052;2023-06-26T06:14:15;9.70;;;7.32;;
65275;SDS011;51875;49.994;14.052;2023-06-26T06:15:30;9.52;;;7.45;;
65275;SDS011;51875;49.994;14.052;2023-06-26T06:16:46;10.00;;;7.68;;
65275;SDS011;51875;49.994;14.052;2023-06-26T06:18:02;11.80;;;7.43;;
65275;SDS011;51875;49.994;14.052;2023-06-26T06:19:18;8.95;;;7.32;;
65275;SDS011;51875;49.994;14.052;2023-06-26T06:20:33;9.90;;;7.90;;
65275;SDS011;51875;49.994;14.052;2023-06-26T06:21:50;9.23;;;7.07;;
65275;SDS011;51875;49.994;14.052;2023-06-26T06:23:05;7.85;;;6.78;;
65275;SDS011;51875;49.994;14.052;2023-06-26T06:24:21;7.72;;;6.88;;
65275;SDS011;51875;49.994;14.052;2023-06-26T06:25:37;15.40;;;7.30;;
65275;SDS011;51875;49.994;14.052;2023-06-26T06:26:52;8.02;;;6.75;;
65275;SDS011;51875;49.994;14.052;2023-06-26T06:28:08;9.32;;;7.35;;
65275;SDS011;51875;49.994;14.052;2023-06-26T06:29:24;10.32;;;7.28;;
65275;SDS011;51875;49.994;14.052;2023-06-26T06:30:39;10.18;;;7.22;;
65275;SDS011;51875;49.994;14.052;2023-06-26T06:31:55;10.05;;;7.43;;
65275;SDS011;51875;49.994;14.052;2023-06-26T06:33:11;9.70;;;7.63;;
65275;SDS011;51875;49.994;14.052;2023-06-26T06:34:27;10.82;;;7.45;;
65275;SDS011;51875;49.994;14.052;2023-06-26T06:35:42;11.77;;;7.30;;
65275;SDS011;51875;49.994;14.052;2023-06-26T06:36:58;10.85;;;7.10;;
65275;SDS011;51875;49.994;14.052;2023-06-26T06:38:14;10.00;;;7.15;;
65275;SDS011;51875;49.994;14.052;2023-06-26T06:39:29;9.95;;;7.85;;
65275;SDS011;51875;49.994;14.052;2023-06-26T06:40:45;11.55;;;7.63;;
65275;SDS011;51875;49.994;14.052;2023-06-26T06:42:00;9.27;;;7.32;;
65275;SDS011;51875;49.994;14.052;2023-06-26T06:43:16;14.57;;;7.10;;
65275;SDS011;51875;49.994;14.052;2023-06-26T06:44:31;9.30;;;7.07;;
65275;SDS011;51875;49.994;14.052;2023-06-26T06:45:47;7.72;;;6.82;;
65275;SDS011;51875;49.994;14.052;2023-06-26T06:47:03;9.55;;;6.68;;
65275;SDS011;51875;49.994;14.052;2023-06-26T06:48:18;12.20;;;7.18;;
65275;SDS011;51875;49.994;14.052;2023-06-26T06:49:34;7.95;;;6.40;;
65275;SDS011;51875;49.994;14.052;2023-06-26T06:50:49;10.10;;;7.13;;
65275;SDS011;51875;49.994;14.052;2023-06-26T06:52:05;10.30;;;6.97;;
65275;SDS011;51875;49.994;14.052;2023-06-26T06:53:21;7.65;;;6.85;;
65275;SDS011;51875;49.994;14.052;2023-06-26T06:54:55;10.35;;;6.38;;
65275;SDS011;51875;49.994;14.052;2023-06-26T06:56:13;9.80;;;7.05;;
65275;SDS011;51875;49.994;14.052;2023-06-26T06:57:29;10.93;;;6.80;;
65275;SDS011;51875;49.994;14.052;2023-06-26T06:58:44;8.48;;;6.45;;
65275;SDS011;51875;49.994;14.052;2023-06-26T07:00:02;8.77;;;6.10;;
65275;SDS011;51875;49.994;14.052;2023-06-26T07:01:24;14.18;;;7.40;;
65275;SDS011;51875;49.994;14.052;2023-06-26T07:02:41;9.52;;;6.22;;
65275;SDS011;51875;49.994;14.052;2023-06-26T07:03:59;7.10;;;6.05;;
65275;SDS011;51875;49.994;14.052;2023-06-26T07:05:15;7.28;;;5.90;;
65275;SDS011;51875;49.994;14.052;2023-06-26T07:06:31;9.30;;;6.20;;
65275;SDS011;51875;49.994;14.052;2023-06-26T07:07:47;7.45;;;6.22;;
65275;SDS011;51875;49.994;14.052;2023-06-26T07:09:02;10.65;;;6.57;;
65275;SDS011;51875;49.994;14.052;2023-06-26T07:10:18;9.57;;;6.70;;
65275;SDS011;51875;49.994;14.052;2023-06-26T07:11:33;10.48;;;6.40;;
65275;SDS011;51875;49.994;14.052;2023-06-26T07:12:49;9.18;;;6.70;;
65275;SDS011;51875;49.994;14.052;2023-06-26T07:14:05;6.90;;;5.72;;
65275;SDS011;51875;49.994;14.052;2023-06-26T07:15:20;7.07;;;5.90;;
65275;SDS011;51875;49.994;14.052;2023-06-26T07:16:36;9.82;;;6.35;;
65275;SDS011;51875;49.994;14.052;2023-06-26T07:17:51;7.25;;;6.00;;
65275;SDS011;51875;49.994;14.052;2023-06-26T07:19:07;7.15;;;5.80;;
65275;SDS011;51875;49.994;14.052;2023-06-26T07:20:22;9.23;;;6.30;;
65275;SDS011;51875;49.994;14.052;2023-06-26T07:21:39;10.20;;;6.40;;
65275;SDS011;51875;49.994;14.052;2023-06-26T07:22:56;6.57;;;5.60;;
65275;SDS011;51875;49.994;14.052;2023-06-26T07:24:11;10.38;;;6.50;;
65275;SDS011;51875;49.994;14.052;2023-06-26T07:25:27;8.48;;;5.80;;
65275;SDS011;51875;49.994;14.052;2023-06-26T07:26:42;9.05;;;6.07;;
65275;SDS011;51875;49.994;14.052;2023-06-26T07:27:58;8.90;;;5.85;;
65275;SDS011;51875;49.994;14.052;2023-06-26T07:29:14;7.57;;;5.28;;
65275;SDS011;51875;49.994;14.052;2023-06-26T07:30:30;7.28;;;5.65;;
65275;SDS011;51875;49.994;14.052;2023-06-26T07:31:45;12.07;;;5.97;;
65275;SDS011;51875;49.994;14.052;2023-06-26T07:33:01;11.05;;;5.78;;
65275;SDS011;51875;49.994;14.052;2023-06-26T07:34:16;7.68;;;5.40;;
65275;SDS011;51875;49.994;14.052;2023-06-26T07:35:32;6.82;;;5.63;;
65275;SDS011;51875;49.994;14.052;2023-06-26T07:36:48;7.47;;;4.63;;